Latest Weather Observations for Omeo

IDV60801

Issued at 7:22 pm EST Monday 10 August 2020 (issued every 10 minutes, with the page automatically refreshed every 10 minutes)

About weather observations | Map of weather stations | Latest weather observations for VIC | Other Formats
Station Details ID: 083090 Name: OMEO Lat: -37.10 Lon: 147.60 Height: 689.8 m
Data from the previous 72 hours. | See also: Recent months at Omeo
Date/Time
EST
Temp
°C
App
Temp
°C
Dew
Point
°C
Rel
Hum
%
Delta-T
°C
Wind Press
QNH
hPa
Press
MSL
hPa
Rain since
9am
mm
Dir  Spd
km/h
Gust
km/h
Spd
kts
Gust
kts
10/07:00pm 4.3 2.7 2.7 89 0.7 CALM 0 6 0 3 1020.5 1021.4 0.2
10/06:30pm 5.5 2.7 3.2 85 1.0 SW 7 11 4 6 1020.5 1021.4 0.2
10/06:00pm 5.8 3.9 3.0 82 1.2 SSW 2 7 1 4 1020.3 1021.2 0.2
10/05:30pm 7.1 4.9 3.5 78 1.6 SSE 4 7 2 4 1020.2 1021.1 0.2
10/05:00pm 8.7 5.6 3.5 70 2.3 SE 9 13 5 7 1020.2 1021.1 0.2
10/04:30pm 10.0 7.0 4.2 67 2.7 SE 9 15 5 8 1020.4 1021.3 0.2
10/04:00pm 10.4 7.4 4.1 65 2.9 SE 9 15 5 8 1020.4 1021.3 0.2
10/03:30pm 10.4 6.6 3.7 63 3.1 SE 13 20 7 11 1020.5 1021.4 0.2
10/03:00pm 10.7 7.0 4.2 64 3.0 SE 13 20 7 11 1020.5 1021.4 0.2
10/02:30pm 11.3 7.6 4.5 63 3.2 SE 13 20 7 11 1020.5 1021.4 0.2
10/02:00pm 10.9 7.4 3.5 60 3.4 SSE 11 17 6 9 1020.6 1021.5 0.2
10/01:30pm 10.8 7.2 2.9 58 3.6 SSE 11 20 6 11 1020.8 1021.7 0.2
10/01:00pm 10.5 6.9 3.1 60 3.3 SSE 11 19 6 10 1021.3 1022.2 0.0
10/12:30pm 9.9 5.9 2.7 61 3.2 SSE 13 20 7 11 1021.9 1022.8 0.0
10/12:00pm 9.4 5.3 2.5 62 3.0 SE 13 20 7 11 1022.3 1023.3 0.0
10/11:30am 9.0 5.4 2.8 65 2.7 SE 11 20 6 11 1022.8 1023.7 0.0
10/11:00am 8.5 5.1 3.8 72 2.1 SE 11 19 6 10 1023.0 1023.9 0.0
10/10:30am 8.3 4.3 3.0 69 2.3 SSE 13 24 7 13 1023.0 1023.9 0.0
10/10:00am 9.2 6.1 3.4 67 2.6 SE 9 19 5 10 1022.9 1023.8 0.0
10/09:30am 8.7 6.0 2.9 67 2.6 SE 6 13 3 7 1022.9 1023.8 0.0
10/09:00am 8.1 5.7 4.5 78 1.6 SSW 6 11 3 6 1022.9 1023.8 3.0
10/08:30am 6.6 4.5 4.1 84 1.1 S 4 9 2 5 1022.9 1023.8 3.0
10/08:00am 6.0 4.4 4.6 91 0.6 SSE 2 7 1 4 1022.8 1023.7 3.0
10/07:30am 5.3 4.0 4.3 93 0.4 CALM 0 6 0 3 1022.4 1023.4 3.0
10/07:00am 5.3 3.2 4.1 92 0.5 SSW 4 9 2 5 1022.1 1023.1 3.0
10/06:30am 5.4 3.0 4.4 93 0.4 SSW 6 9 3 5 1021.8 1022.7 3.0
10/06:00am 5.4 2.8 4.4 93 0.4 SSW 7 11 4 6 1021.6 1022.5 3.0
10/05:30am 5.1 2.7 4.2 94 0.4 SSW 6 9 3 5 1021.2 1022.1 3.0
10/05:00am 5.0 2.9 4.1 94 0.4 SW 4 7 2 4 1020.8 1021.7 3.0
10/04:30am 4.9 2.4 3.9 93 0.4 SSW 6 11 3 6 1020.5 1021.4 3.0
10/04:00am 5.3 2.7 4.0 91 0.6 SSE 7 11 4 6 1020.3 1021.2 3.0
10/03:30am 5.4 2.8 4.2 92 0.5 SSE 7 15 4 8 1020.5 1021.4 3.0
10/03:00am 5.3 2.7 4.0 91 0.6 SSE 7 15 4 8 1020.4 1021.3 3.0
10/02:30am 5.6 1.8 3.8 88 0.8 SSE 13 24 7 13 1020.5 1021.4 3.0
10/02:00am 5.7 2.4 4.5 92 0.5 SSE 11 17 6 9 1020.4 1021.3 3.0
10/01:30am 5.9 2.3 4.9 93 0.5 SSE 13 24 7 13 1020.3 1021.2 3.0
10/01:00am 6.1 3.4 5.5 96 0.3 SSE 9 19 5 10 1020.3 1021.2 3.0
10/12:30am 6.1 3.4 5.7 97 0.2 SSE 9 19 5 10 1020.2 1021.1 3.0
10/12:00am 6.0 3.0 5.9 99 0.0 SSE 11 19 6 10 1020.2 1021.1 3.0
 
Date/Time
EST
Temp
°C
App
Temp
°C
Dew
Point
°C
Rel
Hum
%
Delta-T
°C
Wind Press
QNH
hPa
Press
MSL
hPa
Rain since
9am
mm
Dir  Spd
km/h
Gust
km/h
Spd
kts
Gust
kts
09/11:30pm 6.1 3.5 6.0 99 0.0 SSE 9 17 5 9 1020.5 1021.4 3.0
09/11:00pm 6.1 3.1 6.0 99 0.0 SSE 11 20 6 11 1020.6 1021.5 3.0
09/10:30pm 6.1 2.7 6.0 99 0.0 SSE 13 22 7 12 1020.7 1021.6 3.0
09/10:00pm 6.3 2.2 6.2 99 0.0 SSE 17 24 9 13 1020.7 1021.6 2.8
09/09:30pm 6.3 2.5 6.0 98 0.1 SSE 15 24 8 13 1020.6 1021.5 2.2
09/09:00pm 6.3 3.7 6.0 98 0.1 SSE 9 20 5 11 1020.6 1021.5 2.2
09/08:30pm 6.2 2.3 5.5 95 0.3 SSE 15 26 8 14 1020.4 1021.3 2.0
09/08:00pm 6.3 1.8 5.9 97 0.2 SSE 19 26 10 14 1020.1 1021.0 2.0
09/07:30pm 6.3 0.8 5.9 97 0.2 SSE 24 37 13 20 1019.8 1020.7 2.0
09/07:00pm 6.5 3.1 5.9 96 0.3 SSE 13 24 7 13 1019.5 1020.4 1.8
09/06:30pm 6.6 2.9 6.2 97 0.2 SSE 15 26 8 14 1019.1 1020.0 1.8
09/06:00pm 6.4 1.0 6.3 99 0.0 SSE 24 43 13 23 1018.6 1019.5 1.8
09/05:30pm 6.7 1.7 6.6 99 0.0 SSE 22 39 12 21 1018.2 1019.0 1.6
09/05:00pm 6.8 2.4 6.7 99 0.0 SSE 19 32 10 17 1017.7 1018.6 1.6
09/04:30pm 7.0 2.5 6.9 99 0.0 SSE 20 33 11 18 1017.5 1018.4 1.0
09/04:00pm 7.2 3.2 6.6 96 0.3 SSE 17 28 9 15 1017.5 1018.4 0.8
09/03:30pm 7.5 2.6 6.8 95 0.3 SSE 22 37 12 20 1017.2 1018.1 0.6
09/03:00pm 8.3 4.7 6.8 90 0.7 SSE 15 24 8 13 1017.1 1017.9 0.2
09/02:30pm 8.0 3.6 6.6 91 0.7 SSE 19 35 10 19 1017.2 1018.1 0.2
09/02:00pm 7.9 3.5 6.7 92 0.6 SE 19 32 10 17 1017.1 1017.9 0.0
09/01:30pm 8.2 2.7 6.0 86 1.0 SE 24 41 13 22 1017.2 1018.1 0.0
09/01:00pm 8.2 4.1 6.2 87 1.0 SSE 17 33 9 18 1017.2 1018.1 0.0
09/12:30pm 7.8 2.8 6.4 91 0.7 SE 22 41 12 22 1017.3 1018.2 0.0
09/12:00pm 7.9 3.0 6.7 92 0.6 SE 22 39 12 21 1017.4 1018.3 0.0
09/11:30am 7.8 1.7 6.7 93 0.5 SE 28 41 15 22 1017.5 1018.4 0.0
09/11:00am 7.6 2.3 7.0 96 0.3 SE 24 39 13 21 1017.8 1018.7 0.0
09/10:30am 7.7 2.0 6.6 93 0.5 SSE 26 41 14 22 1017.6 1018.5 0.0
09/10:00am 7.8 3.6 7.4 97 0.2 SSE 19 32 10 17 1017.7 1018.6 0.0
09/09:30am 6.6 2.2 6.5 99 0.0 SSE 19 32 10 17 1017.6 1018.5 0.0
09/09:00am 6.5 2.8 6.4 99 0.0 SSE 15 28 8 15 1017.5 1018.4 4.0
09/08:30am 6.4 3.1 6.3 99 0.0 SSE 13 24 7 13 1017.4 1018.3 4.0
09/08:00am 6.2 2.8 6.1 99 0.0 SSE 13 26 7 14 1017.3 1018.2 4.0
09/07:30am 5.9 1.7 5.8 99 0.0 SSE 17 30 9 16 1017.2 1018.1 4.0
09/07:00am 5.8 2.4 5.7 99 0.0 SSE 13 19 7 10 1017.1 1017.9 4.0
09/06:30am 5.8 2.4 5.7 99 0.0 SSE 13 24 7 13 1017.0 1017.8 4.0
09/06:00am 5.8 2.7 5.7 99 0.0 S 11 20 6 11 1016.8 1017.6 3.8
09/05:30am 5.6 2.9 5.5 99 0.0 SSW 9 17 5 9 1016.4 1017.3 3.8
09/05:00am 5.9 3.5 5.2 95 0.3 SSE 7 15 4 8 1016.6 1017.4 3.8
09/04:30am 5.8 2.9 4.8 93 0.5 S 9 17 5 9 1016.4 1017.3 3.8
09/04:00am 6.0 3.1 4.8 92 0.5 SSE 9 15 5 8 1016.4 1017.3 3.8
09/03:30am 6.0 2.7 4.8 92 0.5 SSE 11 20 6 11 1016.7 1017.5 3.8
09/03:00am 5.9 3.0 4.4 90 0.7 S 9 15 5 8 1016.6 1017.4 3.8
09/02:30am 6.1 3.2 4.6 90 0.7 SSE 9 19 5 10 1016.8 1017.6 3.8
09/02:00am 6.2 2.9 4.8 91 0.6 SSE 11 19 6 10 1016.8 1017.6 3.8
09/01:30am 6.1 3.0 5.4 95 0.3 S 11 19 6 10 1017.0 1017.8 3.8
09/01:00am 6.3 2.5 5.9 97 0.2 SSE 15 24 8 13 1017.1 1017.9 3.8
09/12:30am 6.4 3.0 6.1 98 0.1 SSE 13 22 7 12 1017.1 1017.9 3.8
09/12:00am 6.5 3.2 6.4 99 0.0 SSE 13 22 7 12 1017.0 1017.8 3.8
 
Date/Time
EST
Temp
°C
App
Temp
°C
Dew
Point
°C
Rel
Hum
%
Delta-T
°C
Wind Press
QNH
hPa
Press
MSL
hPa
Rain since
9am
mm
Dir  Spd
km/h
Gust
km/h
Spd
kts
Gust
kts
08/11:30pm 6.7 2.7 6.6 99 0.0 SSE 17 30 9 16 1016.9 1017.7 3.8
08/11:00pm 6.8 2.2 6.7 99 0.0 SE 20 33 11 18 1016.8 1017.6 3.8
08/10:30pm 7.0 3.1 6.9 99 0.0 SSE 17 26 9 14 1016.7 1017.5 3.8
08/10:00pm 7.2 2.7 7.1 99 0.0 SE 20 30 11 16 1016.9 1017.7 3.8
08/09:30pm 7.4 3.2 7.3 99 0.0 SSE 19 37 10 20 1016.8 1017.6 3.6
08/09:00pm 7.6 4.2 7.5 99 0.0 SSE 15 26 8 14 1016.7 1017.5 3.2
08/08:30pm 7.6 5.7 7.5 99 0.0 SE 7 17 4 9 1016.7 1017.5 3.0
08/08:00pm 7.6 5.7 7.5 99 0.0 SSE 7 15 4 8 1016.7 1017.5 2.2
08/07:30pm 7.6 5.3 7.5 99 0.0 SSE 9 17 5 9 1016.6 1017.4 2.2
08/07:00pm 7.7 4.7 7.6 99 0.0 SSE 13 22 7 12 1016.4 1017.3 2.2
08/06:30pm 7.6 4.6 7.5 99 0.0 SSE 13 20 7 11 1016.4 1017.3 2.2
08/06:00pm 7.7 4.7 7.6 99 0.0 SSE 13 24 7 13 1016.2 1017.1 2.0
08/05:30pm 7.9 5.3 7.8 99 0.0 SSE 11 19 6 10 1016.0 1016.9 2.0
08/05:00pm 8.0 5.0 7.9 99 0.0 SSE 13 24 7 13 1016.0 1016.9 2.0
08/04:30pm 8.2 5.7 8.1 99 0.0 SSE 11 19 6 10 1015.9 1016.7 1.6
08/04:00pm 8.4 6.3 8.3 99 0.0 SSE 9 15 5 8 1015.9 1016.7 1.6
08/03:30pm 8.4 5.5 8.1 98 0.1 SSE 13 22 7 12 1015.9 1016.7 1.6
08/03:00pm 8.5 6.0 8.4 99 0.1 SSE 11 20 6 11 1015.8 1016.6 1.6
08/02:30pm 8.1 5.2 8.0 99 0.0 SE 13 20 7 11 1016.0 1016.9 1.6
08/02:00pm 7.9 5.7 7.8 99 0.0 SSE 9 20 5 11 1016.1 1017.0 1.6
08/01:30pm 7.7 4.7 7.6 99 0.0 SSE 13 20 7 11 1016.2 1017.1 1.2
08/01:00pm 7.9 4.9 7.8 99 0.0 SE 13 20 7 11 1016.6 1017.4 1.2
08/12:30pm 7.4 4.7 7.3 99 0.0 SE 11 17 6 9 1016.8 1017.6 1.2
08/12:00pm 6.9 3.7 6.8 99 0.0 SSE 13 20 7 11 1017.2 1018.1 0.8
08/11:30am 6.9 4.5 6.8 99 0.0 SSE 9 24 5 13 1017.4 1018.3 0.6
08/11:00am 6.9 4.1 6.8 99 0.0 SSE 11 17 6 9 1017.7 1018.6 0.2
08/10:30am 7.0 3.7 6.4 96 0.3 SSE 13 20 7 11 1017.8 1018.7 0.0
08/10:00am 6.9 3.6 6.3 96 0.3 SSE 13 19 7 10 1017.8 1018.7 0.0
08/09:30am 6.5 4.3 6.1 97 0.2 SE 7 13 4 7 1017.8 1018.7 0.0
08/09:00am 6.4 4.2 6.3 99 0.0 S 7 13 4 7 1017.6 1018.5 9.6
08/08:30am 6.2 4.2 6.1 99 0.0 SSE 6 11 3 6 1017.4 1018.3 9.6
08/08:00am 5.9 2.9 5.8 99 0.0 SSE 11 17 6 9 1017.3 1018.2 9.6
08/07:30am 5.7 3.0 5.6 99 0.0 SE 9 15 5 8 1017.2 1018.1 9.6
08/07:00am 5.7 3.4 5.6 99 0.0 SSE 7 15 4 8 1016.8 1017.6 9.6
08/06:30am 5.6 3.4 5.5 99 0.0 S 6 11 3 6 1016.6 1017.4 9.6
08/06:00am 5.7 3.6 5.6 99 0.0 SSE 6 9 3 5 1016.7 1017.5 9.6
08/05:30am 5.6 2.5 5.5 99 0.0 SSE 11 24 6 13 1016.6 1017.4 9.6
08/05:00am 5.5 2.0 5.4 99 0.0 SSE 13 24 7 13 1016.6 1017.4 9.6
08/04:30am 5.4 1.9 5.3 99 0.0 SE 13 22 7 12 1016.4 1017.3 9.6
08/04:00am 5.4 2.6 5.3 99 0.0 SSE 9 17 5 9 1016.6 1017.4 9.6
08/03:30am 5.5 1.6 5.4 99 0.0 SSE 15 20 8 11 1016.6 1017.4 9.6
08/03:00am 5.4 2.2 5.3 99 0.0 SSE 11 17 6 9 1016.8 1017.6 9.6
08/02:30am 5.3 1.0 5.2 99 0.0 SE 17 28 9 15 1016.9 1017.7 9.6
08/02:00am 5.3 1.0 5.2 99 0.0 SE 17 30 9 16 1016.9 1017.7 9.6
08/01:30am 5.2 1.6 5.1 99 0.0 SSE 13 22 7 12 1017.1 1017.9 9.6
08/01:00am 5.2 1.2 5.1 99 0.0 SSE 15 22 8 12 1017.4 1018.3 9.4
08/12:30am 5.2 1.6 5.1 99 0.0 SSE 13 24 7 13 1017.4 1018.3 9.4
08/12:00am 5.1 0.7 5.0 99 0.0 SSE 17 24 9 13 1017.6 1018.5 9.4
 
Date/Time
EST
Temp
°C
App
Temp
°C
Dew
Point
°C
Rel
Hum
%
Delta-T
°C
Wind Press
QNH
hPa
Press
MSL
hPa
Rain since
9am
mm
Dir  Spd
km/h
Gust
km/h
Spd
kts
Gust
kts
07/11:30pm 5.1 0.7 5.0 99 0.0 SE 17 24 9 13 1017.9 1018.8 9.2
07/11:00pm 5.1 0.7 5.0 99 0.0 SSE 17 24 9 13 1018.1 1018.9 9.0
07/10:30pm 5.1 1.1 5.0 99 0.0 SE 15 26 8 14 1018.3 1019.1 8.2
07/10:00pm 5.1 1.5 5.0 99 0.0 SSE 13 20 7 11 1018.3 1019.1 8.0
07/09:30pm 5.1 1.9 5.0 99 0.0 SSE 11 17 6 9 1018.6 1019.5 7.8
07/09:00pm 5.0 2.5 4.9 99 0.0 S 7 15 4 8 1018.5 1019.4 6.8
07/08:30pm 5.0 2.5 4.9 99 0.0 SSE 7 11 4 6 1018.6 1019.5 5.8
07/08:00pm 5.0 2.7 4.9 99 0.0 S 6 13 3 7 1018.6 1019.5 5.0
07/07:30pm 5.1 3.2 5.0 99 0.0 S 4 7 2 4 1018.6 1019.5 4.0

Other formats

Comma delimited format used in spreadsheet applications
http://www.bom.gov.au/fwo/IDV60801/IDV60801.94908.axf

JavaScript Object Notation format (JSON) in row-major order
http://www.bom.gov.au/fwo/IDV60801/IDV60801.94908.json

Data quality

Most of these data are generated automatically and are frequently updated. Quality checks on data are not normally performed. It is possible for incorrect values to appear. Refer to information at About Latest Weather Observations and please check the disclaimer before using these data.